sensor_id;sensor_type;location;lat;lon;timestamp;P1;durP1;ratioP1;P2;durP2;ratioP2
69621;SDS011;56841;55.964;37.674;2022-07-25T00:01:04;8.07;;;5.78;;
69621;SDS011;56841;55.964;37.674;2022-07-25T00:03:30;9.30;;;5.50;;
69621;SDS011;56841;55.964;37.674;2022-07-25T00:05:56;9.55;;;5.70;;
69621;SDS011;56841;55.964;37.674;2022-07-25T00:08:22;9.32;;;6.03;;
69621;SDS011;56841;55.964;37.674;2022-07-25T00:10:47;9.55;;;5.78;;
69621;SDS011;56841;55.964;37.674;2022-07-25T00:13:13;9.15;;;5.72;;
69621;SDS011;56841;55.964;37.674;2022-07-25T00:15:39;9.38;;;5.70;;
69621;SDS011;56841;55.964;37.674;2022-07-25T00:18:06;11.10;;;6.50;;
69621;SDS011;56841;55.964;37.674;2022-07-25T00:20:32;11.57;;;6.47;;
69621;SDS011;56841;55.964;37.674;2022-07-25T00:22:58;10.80;;;6.65;;
69621;SDS011;56841;55.964;37.674;2022-07-25T00:25:24;11.48;;;6.97;;
69621;SDS011;56841;55.964;37.674;2022-07-25T00:27:50;12.25;;;6.72;;
69621;SDS011;56841;55.964;37.674;2022-07-25T00:30:16;8.77;;;6.03;;
69621;SDS011;56841;55.964;37.674;2022-07-25T00:32:41;12.63;;;6.63;;
69621;SDS011;56841;55.964;37.674;2022-07-25T00:35:07;12.13;;;6.78;;
69621;SDS011;56841;55.964;37.674;2022-07-25T00:37:33;12.27;;;6.97;;
69621;SDS011;56841;55.964;37.674;2022-07-25T00:39:59;10.95;;;6.55;;
69621;SDS011;56841;55.964;37.674;2022-07-25T00:42:25;13.45;;;6.68;;
69621;SDS011;56841;55.964;37.674;2022-07-25T00:44:51;16.08;;;7.00;;
69621;SDS011;56841;55.964;37.674;2022-07-25T00:47:17;14.35;;;6.80;;
69621;SDS011;56841;55.964;37.674;2022-07-25T00:49:42;10.07;;;6.57;;
69621;SDS011;56841;55.964;37.674;2022-07-25T00:52:08;9.93;;;6.53;;
69621;SDS011;56841;55.964;37.674;2022-07-25T00:54:34;12.23;;;6.65;;
69621;SDS011;56841;55.964;37.674;2022-07-25T00:57:00;12.20;;;6.75;;
69621;SDS011;56841;55.964;37.674;2022-07-25T00:59:26;15.05;;;7.68;;
69621;SDS011;56841;55.964;37.674;2022-07-25T01:01:52;15.32;;;7.72;;
69621;SDS011;56841;55.964;37.674;2022-07-25T01:04:18;15.02;;;7.70;;
69621;SDS011;56841;55.964;37.674;2022-07-25T01:06:44;17.40;;;8.27;;
69621;SDS011;56841;55.964;37.674;2022-07-25T01:09:10;15.02;;;7.65;;
69621;SDS011;56841;55.964;37.674;2022-07-25T01:11:36;14.98;;;7.80;;
69621;SDS011;56841;55.964;37.674;2022-07-25T01:14:02;14.85;;;7.53;;
69621;SDS011;56841;55.964;37.674;2022-07-25T01:16:28;15.98;;;7.70;;
69621;SDS011;56841;55.964;37.674;2022-07-25T01:18:54;15.30;;;8.68;;
69621;SDS011;56841;55.964;37.674;2022-07-25T01:21:21;14.00;;;7.57;;
69621;SDS011;56841;55.964;37.674;2022-07-25T01:23:48;15.48;;;8.38;;
69621;SDS011;56841;55.964;37.674;2022-07-25T01:26:14;29.35;;;17.83;;
69621;SDS011;56841;55.964;37.674;2022-07-25T01:28:39;18.40;;;8.88;;
69621;SDS011;56841;55.964;37.674;2022-07-25T01:31:05;14.45;;;6.68;;
69621;SDS011;56841;55.964;37.674;2022-07-25T01:33:31;15.18;;;6.45;;
69621;SDS011;56841;55.964;37.674;2022-07-25T01:35:57;12.65;;;6.65;;
69621;SDS011;56841;55.964;37.674;2022-07-25T01:38:23;9.77;;;5.43;;
69621;SDS011;56841;55.964;37.674;2022-07-25T01:40:49;8.88;;;5.38;;
69621;SDS011;56841;55.964;37.674;2022-07-25T01:43:15;10.45;;;5.72;;
69621;SDS011;56841;55.964;37.674;2022-07-25T01:45:44;11.40;;;5.45;;
69621;SDS011;56841;55.964;37.674;2022-07-25T01:48:10;9.63;;;5.63;;
69621;SDS011;56841;55.964;37.674;2022-07-25T01:50:36;10.32;;;5.50;;
69621;SDS011;56841;55.964;37.674;2022-07-25T01:53:01;11.73;;;5.95;;
69621;SDS011;56841;55.964;37.674;2022-07-25T01:55:28;9.60;;;5.65;;
69621;SDS011;56841;55.964;37.674;2022-07-25T01:57:53;8.40;;;5.57;;
69621;SDS011;56841;55.964;37.674;2022-07-25T02:00:19;10.05;;;6.20;;
69621;SDS011;56841;55.964;37.674;2022-07-25T02:02:45;11.52;;;6.38;;
69621;SDS011;56841;55.964;37.674;2022-07-25T02:05:11;11.32;;;6.50;;
69621;SDS011;56841;55.964;37.674;2022-07-25T02:07:38;9.27;;;5.80;;
69621;SDS011;56841;55.964;37.674;2022-07-25T02:10:04;11.40;;;5.97;;
69621;SDS011;56841;55.964;37.674;2022-07-25T02:12:31;12.82;;;6.90;;
69621;SDS011;56841;55.964;37.674;2022-07-25T02:14:57;11.50;;;6.75;;
69621;SDS011;56841;55.964;37.674;2022-07-25T02:17:23;13.48;;;6.93;;
69621;SDS011;56841;55.964;37.674;2022-07-25T02:19:49;13.07;;;6.40;;
69621;SDS011;56841;55.964;37.674;2022-07-25T02:22:15;14.13;;;7.10;;
69621;SDS011;56841;55.964;37.674;2022-07-25T02:24:40;13.20;;;6.43;;
69621;SDS011;56841;55.964;37.674;2022-07-25T02:27:06;14.70;;;6.90;;
69621;SDS011;56841;55.964;37.674;2022-07-25T02:29:32;14.15;;;6.90;;
69621;SDS011;56841;55.964;37.674;2022-07-25T02:31:58;12.02;;;7.03;;
69621;SDS011;56841;55.964;37.674;2022-07-25T02:34:24;12.90;;;7.03;;
69621;SDS011;56841;55.964;37.674;2022-07-25T02:36:50;14.93;;;6.75;;
69621;SDS011;56841;55.964;37.674;2022-07-25T02:39:16;13.07;;;6.88;;
69621;SDS011;56841;55.964;37.674;2022-07-25T02:41:42;14.77;;;6.75;;
69621;SDS011;56841;55.964;37.674;2022-07-25T02:44:09;18.70;;;7.60;;
69621;SDS011;56841;55.964;37.674;2022-07-25T02:46:35;15.10;;;6.70;;
69621;SDS011;56841;55.964;37.674;2022-07-25T02:49:01;17.75;;;7.25;;
69621;SDS011;56841;55.964;37.674;2022-07-25T02:51:27;18.48;;;7.72;;
69621;SDS011;56841;55.964;37.674;2022-07-25T02:53:53;14.32;;;6.50;;
69621;SDS011;56841;55.964;37.674;2022-07-25T02:56:19;13.10;;;7.03;;
69621;SDS011;56841;55.964;37.674;2022-07-25T02:58:45;13.20;;;6.28;;
69621;SDS011;56841;55.964;37.674;2022-07-25T03:01:11;14.27;;;7.05;;
69621;SDS011;56841;55.964;37.674;2022-07-25T03:03:37;12.80;;;7.00;;
69621;SDS011;56841;55.964;37.674;2022-07-25T03:06:03;14.93;;;6.68;;
69621;SDS011;56841;55.964;37.674;2022-07-25T03:08:29;11.45;;;6.22;;
69621;SDS011;56841;55.964;37.674;2022-07-25T03:10:55;11.80;;;6.10;;
69621;SDS011;56841;55.964;37.674;2022-07-25T03:13:21;11.30;;;5.85;;
69621;SDS011;56841;55.964;37.674;2022-07-25T03:15:47;14.77;;;6.75;;
69621;SDS011;56841;55.964;37.674;2022-07-25T03:18:13;10.70;;;6.10;;
69621;SDS011;56841;55.964;37.674;2022-07-25T03:20:39;10.32;;;5.95;;
69621;SDS011;56841;55.964;37.674;2022-07-25T03:23:04;10.18;;;5.78;;
69621;SDS011;56841;55.964;37.674;2022-07-25T03:25:30;11.10;;;5.72;;
69621;SDS011;56841;55.964;37.674;2022-07-25T03:27:56;8.35;;;5.53;;
69621;SDS011;56841;55.964;37.674;2022-07-25T03:30:22;9.15;;;5.60;;
69621;SDS011;56841;55.964;37.674;2022-07-25T03:32:48;20.42;;;9.32;;
69621;SDS011;56841;55.964;37.674;2022-07-25T03:35:14;13.73;;;5.88;;
69621;SDS011;56841;55.964;37.674;2022-07-25T03:37:40;9.88;;;5.10;;
69621;SDS011;56841;55.964;37.674;2022-07-25T03:40:06;8.65;;;5.38;;
69621;SDS011;56841;55.964;37.674;2022-07-25T03:42:33;9.07;;;5.35;;
69621;SDS011;56841;55.964;37.674;2022-07-25T03:44:59;9.65;;;5.82;;
69621;SDS011;56841;55.964;37.674;2022-07-25T03:47:26;9.20;;;5.43;;
69621;SDS011;56841;55.964;37.674;2022-07-25T03:49:52;8.82;;;5.68;;
69621;SDS011;56841;55.964;37.674;2022-07-25T03:52:18;8.60;;;5.47;;
69621;SDS011;56841;55.964;37.674;2022-07-25T03:54:44;7.63;;;4.70;;
69621;SDS011;56841;55.964;37.674;2022-07-25T03:57:10;12.55;;;5.97;;
69621;SDS011;56841;55.964;37.674;2022-07-25T03:59:36;9.18;;;5.38;;
69621;SDS011;56841;55.964;37.674;2022-07-25T04:02:02;8.30;;;5.32;;
69621;SDS011;56841;55.964;37.674;2022-07-25T04:04:28;12.32;;;5.13;;
69621;SDS011;56841;55.964;37.674;2022-07-25T04:06:54;8.10;;;5.30;;
69621;SDS011;56841;55.964;37.674;2022-07-25T04:09:20;8.50;;;5.50;;
69621;SDS011;56841;55.964;37.674;2022-07-25T04:11:46;12.88;;;6.10;;
69621;SDS011;56841;55.964;37.674;2022-07-25T04:14:12;10.82;;;5.55;;
69621;SDS011;56841;55.964;37.674;2022-07-25T04:16:38;9.82;;;5.05;;
69621;SDS011;56841;55.964;37.674;2022-07-25T04:19:04;7.72;;;5.28;;
69621;SDS011;56841;55.964;37.674;2022-07-25T04:21:30;8.02;;;5.53;;
69621;SDS011;56841;55.964;37.674;2022-07-25T04:23:56;10.68;;;6.03;;
69621;SDS011;56841;55.964;37.674;2022-07-25T04:26:22;10.07;;;5.70;;
69621;SDS011;56841;55.964;37.674;2022-07-25T04:28:48;7.70;;;4.80;;
69621;SDS011;56841;55.964;37.674;2022-07-25T04:31:13;9.25;;;4.95;;
69621;SDS011;56841;55.964;37.674;2022-07-25T04:33:40;11.95;;;6.10;;
69621;SDS011;56841;55.964;37.674;2022-07-25T04:36:06;10.00;;;5.22;;
69621;SDS011;56841;55.964;37.674;2022-07-25T04:38:33;10.63;;;5.80;;
69621;SDS011;56841;55.964;37.674;2022-07-25T04:40:59;10.48;;;6.10;;
69621;SDS011;56841;55.964;37.674;2022-07-25T04:43:25;8.52;;;5.82;;
69621;SDS011;56841;55.964;37.674;2022-07-25T04:45:50;7.93;;;5.70;;
69621;SDS011;56841;55.964;37.674;2022-07-25T04:48:16;10.48;;;6.18;;
69621;SDS011;56841;55.964;37.674;2022-07-25T04:50:43;8.00;;;4.75;;
69621;SDS011;56841;55.964;37.674;2022-07-25T04:53:09;11.25;;;4.70;;
69621;SDS011;56841;55.964;37.674;2022-07-25T04:55:35;9.98;;;5.28;;
69621;SDS011;56841;55.964;37.674;2022-07-25T04:58:03;8.77;;;5.75;;
69621;SDS011;56841;55.964;37.674;2022-07-25T05:00:30;8.02;;;4.78;;
69621;SDS011;56841;55.964;37.674;2022-07-25T05:02:56;9.40;;;5.35;;
69621;SDS011;56841;55.964;37.674;2022-07-25T05:05:22;7.68;;;5.40;;
69621;SDS011;56841;55.964;37.674;2022-07-25T05:07:49;8.98;;;5.32;;
69621;SDS011;56841;55.964;37.674;2022-07-25T05:10:15;8.55;;;5.53;;
69621;SDS011;56841;55.964;37.674;2022-07-25T05:12:42;12.63;;;6.47;;
69621;SDS011;56841;55.964;37.674;2022-07-25T05:15:08;9.07;;;6.22;;
69621;SDS011;56841;55.964;37.674;2022-07-25T05:17:34;9.27;;;5.80;;
69621;SDS011;56841;55.964;37.674;2022-07-25T05:19:59;8.60;;;6.03;;
69621;SDS011;56841;55.964;37.674;2022-07-25T05:22:25;10.23;;;5.82;;
69621;SDS011;56841;55.964;37.674;2022-07-25T05:24:51;7.80;;;5.50;;
69621;SDS011;56841;55.964;37.674;2022-07-25T05:27:17;9.52;;;6.47;;
69621;SDS011;56841;55.964;37.674;2022-07-25T05:29:42;8.25;;;6.00;;
69621;SDS011;56841;55.964;37.674;2022-07-25T05:32:08;11.68;;;6.00;;
69621;SDS011;56841;55.964;37.674;2022-07-25T05:34:34;8.60;;;5.93;;
69621;SDS011;56841;55.964;37.674;2022-07-25T05:37:00;8.63;;;5.63;;
69621;SDS011;56841;55.964;37.674;2022-07-25T05:39:26;8.27;;;5.57;;
69621;SDS011;56841;55.964;37.674;2022-07-25T05:41:51;8.40;;;5.45;;
69621;SDS011;56841;55.964;37.674;2022-07-25T05:44:17;7.90;;;5.80;;
69621;SDS011;56841;55.964;37.674;2022-07-25T05:46:43;7.80;;;5.18;;
69621;SDS011;56841;55.964;37.674;2022-07-25T05:49:09;8.18;;;5.68;;
69621;SDS011;56841;55.964;37.674;2022-07-25T05:51:35;9.50;;;5.28;;
69621;SDS011;56841;55.964;37.674;2022-07-25T05:54:01;7.07;;;5.35;;
69621;SDS011;56841;55.964;37.674;2022-07-25T05:56:27;7.22;;;4.82;;
69621;SDS011;56841;55.964;37.674;2022-07-25T05:58:54;7.78;;;5.22;;
69621;SDS011;56841;55.964;37.674;2022-07-25T06:01:20;8.35;;;5.15;;
69621;SDS011;56841;55.964;37.674;2022-07-25T06:03:46;8.55;;;5.60;;
69621;SDS011;56841;55.964;37.674;2022-07-25T06:06:12;7.95;;;5.32;;
69621;SDS011;56841;55.964;37.674;2022-07-25T06:08:38;8.48;;;5.18;;
69621;SDS011;56841;55.964;37.674;2022-07-25T06:11:04;7.72;;;4.90;;
69621;SDS011;56841;55.964;37.674;2022-07-25T06:13:32;10.05;;;5.32;;
69621;SDS011;56841;55.964;37.674;2022-07-25T06:15:59;7.72;;;5.30;;
69621;SDS011;56841;55.964;37.674;2022-07-25T06:18:25;9.43;;;5.07;;
69621;SDS011;56841;55.964;37.674;2022-07-25T06:20:51;10.15;;;5.70;;
69621;SDS011;56841;55.964;37.674;2022-07-25T06:23:17;9.35;;;4.90;;
69621;SDS011;56841;55.964;37.674;2022-07-25T06:25:44;8.93;;;5.40;;
69621;SDS011;56841;55.964;37.674;2022-07-25T06:28:11;9.88;;;5.72;;
69621;SDS011;56841;55.964;37.674;2022-07-25T06:30:40;9.40;;;4.97;;
69621;SDS011;56841;55.964;37.674;2022-07-25T06:33:06;8.77;;;5.32;;
69621;SDS011;56841;55.964;37.674;2022-07-25T06:35:33;11.02;;;6.45;;
69621;SDS011;56841;55.964;37.674;2022-07-25T06:37:59;8.27;;;4.93;;
69621;SDS011;56841;55.964;37.674;2022-07-25T06:40:26;8.27;;;4.53;;
69621;SDS011;56841;55.964;37.674;2022-07-25T06:42:52;6.95;;;4.38;;
69621;SDS011;56841;55.964;37.674;2022-07-25T06:45:20;6.65;;;4.18;;
69621;SDS011;56841;55.964;37.674;2022-07-25T06:47:45;8.13;;;5.15;;
69621;SDS011;56841;55.964;37.674;2022-07-25T06:50:12;7.47;;;4.32;;
69621;SDS011;56841;55.964;37.674;2022-07-25T06:52:39;7.82;;;5.18;;
69621;SDS011;56841;55.964;37.674;2022-07-25T06:55:06;7.57;;;4.90;;
69621;SDS011;56841;55.964;37.674;2022-07-25T06:57:33;9.35;;;5.20;;
69621;SDS011;56841;55.964;37.674;2022-07-25T07:00:00;7.72;;;4.72;;
69621;SDS011;56841;55.964;37.674;2022-07-25T07:02:29;8.57;;;5.80;;
69621;SDS011;56841;55.964;37.674;2022-07-25T07:04:54;7.00;;;5.25;;
69621;SDS011;56841;55.964;37.674;2022-07-25T07:07:20;7.10;;;5.28;;
69621;SDS011;56841;55.964;37.674;2022-07-25T07:09:46;9.13;;;5.20;;
69621;SDS011;56841;55.964;37.674;2022-07-25T07:12:12;10.32;;;5.07;;
69621;SDS011;56841;55.964;37.674;2022-07-25T07:14:41;11.02;;;5.03;;
69621;SDS011;56841;55.964;37.674;2022-07-25T07:17:08;8.50;;;4.95;;
69621;SDS011;56841;55.964;37.674;2022-07-25T07:19:34;9.57;;;5.30;;
69621;SDS011;56841;55.964;37.674;2022-07-25T07:22:00;8.30;;;5.00;;
69621;SDS011;56841;55.964;37.674;2022-07-25T07:24:25;8.05;;;5.20;;
69621;SDS011;56841;55.964;37.674;2022-07-25T07:26:52;7.60;;;5.10;;
69621;SDS011;56841;55.964;37.674;2022-07-25T07:29:18;9.98;;;5.35;;
69621;SDS011;56841;55.964;37.674;2022-07-25T07:31:44;9.50;;;5.88;;
69621;SDS011;56841;55.964;37.674;2022-07-25T07:34:10;8.63;;;5.22;;
69621;SDS011;56841;55.964;37.674;2022-07-25T07:36:36;9.00;;;5.32;;
69621;SDS011;56841;55.964;37.674;2022-07-25T07:39:01;8.30;;;5.10;;
69621;SDS011;56841;55.964;37.674;2022-07-25T07:41:27;6.88;;;4.90;;
69621;SDS011;56841;55.964;37.674;2022-07-25T07:43:53;8.40;;;4.53;;
69621;SDS011;56841;55.964;37.674;2022-07-25T07:46:19;7.00;;;4.93;;
69621;SDS011;56841;55.964;37.674;2022-07-25T07:48:44;7.43;;;5.05;;
69621;SDS011;56841;55.964;37.674;2022-07-25T07:51:11;7.90;;;5.28;;
69621;SDS011;56841;55.964;37.674;2022-07-25T07:53:37;8.38;;;4.97;;
69621;SDS011;56841;55.964;37.674;2022-07-25T07:56:21;10.10;;;5.68;;
69621;SDS011;56841;55.964;37.674;2022-07-25T07:58:47;7.85;;;5.20;;
69621;SDS011;56841;55.964;37.674;2022-07-25T08:01:13;7.72;;;5.85;;
69621;SDS011;56841;55.964;37.674;2022-07-25T08:03:38;9.40;;;6.03;;
69621;SDS011;56841;55.964;37.674;2022-07-25T08:06:04;8.43;;;5.63;;
69621;SDS011;56841;55.964;37.674;2022-07-25T08:08:30;10.93;;;5.65;;
69621;SDS011;56841;55.964;37.674;2022-07-25T08:10:56;7.63;;;5.60;;
69621;SDS011;56841;55.964;37.674;2022-07-25T08:13:23;7.78;;;5.68;;
69621;SDS011;56841;55.964;37.674;2022-07-25T08:15:52;9.07;;;5.80;;
69621;SDS011;56841;55.964;37.674;2022-07-25T08:18:20;9.20;;;5.90;;
69621;SDS011;56841;55.964;37.674;2022-07-25T08:20:46;9.00;;;5.63;;
69621;SDS011;56841;55.964;37.674;2022-07-25T08:23:12;8.70;;;5.75;;
69621;SDS011;56841;55.964;37.674;2022-07-25T08:25:39;12.45;;;6.30;;
69621;SDS011;56841;55.964;37.674;2022-07-25T08:28:05;9.05;;;6.00;;
69621;SDS011;56841;55.964;37.674;2022-07-25T08:30:31;9.02;;;5.10;;
69621;SDS011;56841;55.964;37.674;2022-07-25T08:32:59;8.82;;;5.65;;
69621;SDS011;56841;55.964;37.674;2022-07-25T08:35:28;7.43;;;5.10;;
69621;SDS011;56841;55.964;37.674;2022-07-25T08:37:54;8.82;;;5.40;;
69621;SDS011;56841;55.964;37.674;2022-07-25T08:40:22;7.68;;;5.13;;
69621;SDS011;56841;55.964;37.674;2022-07-25T08:42:49;9.88;;;5.90;;
69621;SDS011;56841;55.964;37.674;2022-07-25T08:45:16;7.45;;;5.57;;
69621;SDS011;56841;55.964;37.674;2022-07-25T08:47:44;10.75;;;6.20;;
69621;SDS011;56841;55.964;37.674;2022-07-25T08:50:13;8.23;;;5.70;;
69621;SDS011;56841;55.964;37.674;2022-07-25T08:52:44;9.65;;;5.43;;
69621;SDS011;56841;55.964;37.674;2022-07-25T08:55:12;9.75;;;5.78;;
69621;SDS011;56841;55.964;37.674;2022-07-25T08:57:41;8.75;;;5.10;;
69621;SDS011;56841;55.964;37.674;2022-07-25T09:00:09;7.78;;;5.30;;
69621;SDS011;56841;55.964;37.674;2022-07-25T09:02:36;6.05;;;4.70;;
69621;SDS011;56841;55.964;37.674;2022-07-25T09:05:03;9.38;;;6.00;;
69621;SDS011;56841;55.964;37.674;2022-07-25T09:07:33;6.50;;;5.55;;
69621;SDS011;56841;55.964;37.674;2022-07-25T09:12:57;10.43;;;5.60;;
69621;SDS011;56841;55.964;37.674;2022-07-25T09:15:34;9.07;;;5.47;;
69621;SDS011;56841;55.964;37.674;2022-07-25T09:18:03;12.30;;;6.82;;
69621;SDS011;56841;55.964;37.674;2022-07-25T09:20:44;8.85;;;5.88;;
69621;SDS011;56841;55.964;37.674;2022-07-25T09:23:13;10.50;;;6.03;;
69621;SDS011;56841;55.964;37.674;2022-07-25T09:25:51;9.82;;;6.25;;
69621;SDS011;56841;55.964;37.674;2022-07-25T09:28:17;8.18;;;5.63;;
69621;SDS011;56841;55.964;37.674;2022-07-25T09:30:57;10.07;;;6.18;;
69621;SDS011;56841;55.964;37.674;2022-07-25T09:33:24;13.32;;;6.47;;
69621;SDS011;56841;55.964;37.674;2022-07-25T09:35:52;10.05;;;6.20;;
69621;SDS011;56841;55.964;37.674;2022-07-25T09:38:20;11.30;;;6.00;;
69621;SDS011;56841;55.964;37.674;2022-07-25T09:43:23;8.80;;;5.30;;
69621;SDS011;56841;55.964;37.674;2022-07-25T09:46:01;8.80;;;5.85;;
69621;SDS011;56841;55.964;37.674;2022-07-25T09:48:27;10.38;;;5.70;;
69621;SDS011;56841;55.964;37.674;2022-07-25T09:50:54;11.05;;;4.20;;
69621;SDS011;56841;55.964;37.674;2022-07-25T09:53:21;8.40;;;5.50;;
69621;SDS011;56841;55.964;37.674;2022-07-25T09:55:46;7.72;;;5.63;;
69621;SDS011;56841;55.964;37.674;2022-07-25T09:58:12;9.63;;;5.53;;
69621;SDS011;56841;55.964;37.674;2022-07-25T10:00:38;8.68;;;5.65;;
69621;SDS011;56841;55.964;37.674;2022-07-25T10:08:44;7.13;;;4.97;;
69621;SDS011;56841;55.964;37.674;2022-07-25T10:11:22;7.60;;;5.82;;
69621;SDS011;56841;55.964;37.674;2022-07-25T10:13:50;10.05;;;6.15;;
69621;SDS011;56841;55.964;37.674;2022-07-25T10:16:21;10.15;;;6.20;;
69621;SDS011;56841;55.964;37.674;2022-07-25T10:18:49;6.45;;;4.05;;
69621;SDS011;56841;55.964;37.674;2022-07-25T10:21:17;7.57;;;5.72;;
69621;SDS011;56841;55.964;37.674;2022-07-25T10:23:44;8.98;;;5.95;;
69621;SDS011;56841;55.964;37.674;2022-07-25T10:26:11;10.25;;;6.55;;
69621;SDS011;56841;55.964;37.674;2022-07-25T10:28:43;11.25;;;5.90;;
69621;SDS011;56841;55.964;37.674;2022-07-25T10:31:20;7.90;;;4.50;;
69621;SDS011;56841;55.964;37.674;2022-07-25T10:33:47;9.27;;;5.95;;
69621;SDS011;56841;55.964;37.674;2022-07-25T10:36:16;8.50;;;5.95;;
69621;SDS011;56841;55.964;37.674;2022-07-25T10:38:43;11.32;;;6.68;;
69621;SDS011;56841;55.964;37.674;2022-07-25T10:41:14;9.82;;;5.20;;
69621;SDS011;56841;55.964;37.674;2022-07-25T10:43:42;7.85;;;6.15;;
69621;SDS011;56841;55.964;37.674;2022-07-25T10:46:13;11.43;;;6.22;;
69621;SDS011;56841;55.964;37.674;2022-07-25T10:48:42;10.50;;;6.45;;
69621;SDS011;56841;55.964;37.674;2022-07-25T10:51:10;7.05;;;5.70;;
69621;SDS011;56841;55.964;37.674;2022-07-25T10:53:42;7.55;;;5.82;;
69621;SDS011;56841;55.964;37.674;2022-07-25T10:58:51;7.57;;;5.70;;
69621;SDS011;56841;55.964;37.674;2022-07-25T11:01:21;7.50;;;5.60;;
69621;SDS011;56841;55.964;37.674;2022-07-25T11:04:00;9.55;;;6.28;;
69621;SDS011;56841;55.964;37.674;2022-07-25T11:06:37;7.07;;;5.63;;
69621;SDS011;56841;55.964;37.674;2022-07-25T11:09:14;7.50;;;5.68;;
69621;SDS011;56841;55.964;37.674;2022-07-25T11:11:43;5.93;;;5.25;;
69621;SDS011;56841;55.964;37.674;2022-07-25T11:14:13;6.70;;;5.18;;
69621;SDS011;56841;55.964;37.674;2022-07-25T11:16:41;7.30;;;5.93;;
69621;SDS011;56841;55.964;37.674;2022-07-25T11:19:18;7.93;;;5.25;;
69621;SDS011;56841;55.964;37.674;2022-07-25T11:21:47;8.60;;;5.13;;
69621;SDS011;56841;55.964;37.674;2022-07-25T11:24:15;9.35;;;5.60;;
69621;SDS011;56841;55.964;37.674;2022-07-25T11:26:48;7.47;;;4.50;;
69621;SDS011;56841;55.964;37.674;2022-07-25T11:29:22;8.05;;;5.75;;
69621;SDS011;56841;55.964;37.674;2022-07-25T11:34:34;10.75;;;5.70;;
69621;SDS011;56841;55.964;37.674;2022-07-25T11:37:07;6.93;;;5.47;;
69621;SDS011;56841;55.964;37.674;2022-07-25T11:39:35;7.18;;;4.93;;
69621;SDS011;56841;55.964;37.674;2022-07-25T11:44:32;8.60;;;5.47;;
69621;SDS011;56841;55.964;37.674;2022-07-25T11:49:52;7.93;;;5.05;;
69621;SDS011;56841;55.964;37.674;2022-07-25T11:52:24;7.68;;;5.35;;
69621;SDS011;56841;55.964;37.674;2022-07-25T11:54:56;8.43;;;5.47;;
69621;SDS011;56841;55.964;37.674;2022-07-25T11:57:24;7.18;;;4.57;;
69621;SDS011;56841;55.964;37.674;2022-07-25T11:59:52;7.75;;;4.78;;
69621;SDS011;56841;55.964;37.674;2022-07-25T12:05:03;8.02;;;5.15;;
69621;SDS011;56841;55.964;37.674;2022-07-25T12:07:43;7.10;;;4.63;;
69621;SDS011;56841;55.964;37.674;2022-07-25T12:10:23;7.70;;;5.43;;
69621;SDS011;56841;55.964;37.674;2022-07-25T12:12:56;6.38;;;5.00;;
69621;SDS011;56841;55.964;37.674;2022-07-25T12:15:24;7.63;;;5.80;;
69621;SDS011;56841;55.964;37.674;2022-07-25T12:18:11;9.20;;;5.57;;
69621;SDS011;56841;55.964;37.674;2022-07-25T12:20:38;9.15;;;5.57;;
69621;SDS011;56841;55.964;37.674;2022-07-25T12:23:07;8.77;;;5.07;;
69621;SDS011;56841;55.964;37.674;2022-07-25T12:25:36;6.45;;;4.90;;
69621;SDS011;56841;55.964;37.674;2022-07-25T12:28:03;8.02;;;5.15;;
69621;SDS011;56841;55.964;37.674;2022-07-25T12:30:30;6.45;;;4.95;;
69621;SDS011;56841;55.964;37.674;2022-07-25T12:32:57;7.03;;;5.55;;
69621;SDS011;56841;55.964;37.674;2022-07-25T12:35:23;6.75;;;4.60;;
69621;SDS011;56841;55.964;37.674;2022-07-25T12:37:50;8.10;;;4.90;;
69621;SDS011;56841;55.964;37.674;2022-07-25T12:40:17;5.65;;;5.05;;
69621;SDS011;56841;55.964;37.674;2022-07-25T12:42:44;6.13;;;5.07;;
69621;SDS011;56841;55.964;37.674;2022-07-25T12:45:10;5.82;;;4.72;;
69621;SDS011;56841;55.964;37.674;2022-07-25T12:47:39;7.53;;;5.60;;
69621;SDS011;56841;55.964;37.674;2022-07-25T12:50:05;5.18;;;4.68;;
69621;SDS011;56841;55.964;37.674;2022-07-25T12:52:31;6.43;;;4.88;;
69621;SDS011;56841;55.964;37.674;2022-07-25T12:54:57;5.93;;;4.95;;
69621;SDS011;56841;55.964;37.674;2022-07-25T12:57:23;7.90;;;4.70;;
69621;SDS011;56841;55.964;37.674;2022-07-25T12:59:50;6.22;;;4.72;;
69621;SDS011;56841;55.964;37.674;2022-07-25T13:02:16;5.00;;;4.50;;
69621;SDS011;56841;55.964;37.674;2022-07-25T13:04:42;6.13;;;4.78;;
69621;SDS011;56841;55.964;37.674;2022-07-25T13:07:08;8.15;;;5.50;;
69621;SDS011;56841;55.964;37.674;2022-07-25T13:09:33;6.88;;;4.75;;
69621;SDS011;56841;55.964;37.674;2022-07-25T13:11:59;6.00;;;4.78;;
69621;SDS011;56841;55.964;37.674;2022-07-25T13:14:25;6.15;;;5.03;;
69621;SDS011;56841;55.964;37.674;2022-07-25T13:16:51;7.00;;;4.72;;
69621;SDS011;56841;55.964;37.674;2022-07-25T13:19:17;6.63;;;4.88;;
69621;SDS011;56841;55.964;37.674;2022-07-25T13:21:43;5.82;;;4.93;;
69621;SDS011;56841;55.964;37.674;2022-07-25T13:24:09;6.60;;;5.18;;
69621;SDS011;56841;55.964;37.674;2022-07-25T13:26:36;7.65;;;5.18;;
69621;SDS011;56841;55.964;37.674;2022-07-25T13:29:03;9.15;;;5.10;;
69621;SDS011;56841;55.964;37.674;2022-07-25T13:31:36;6.90;;;4.20;;
69621;SDS011;56841;55.964;37.674;2022-07-25T13:34:03;8.38;;;5.00;;
69621;SDS011;56841;55.964;37.674;2022-07-25T13:36:30;5.70;;;4.88;;
69621;SDS011;56841;55.964;37.674;2022-07-25T13:38:57;6.25;;;4.88;;
69621;SDS011;56841;55.964;37.674;2022-07-25T13:41:23;5.70;;;4.55;;
69621;SDS011;56841;55.964;37.674;2022-07-25T13:43:48;7.32;;;4.90;;
69621;SDS011;56841;55.964;37.674;2022-07-25T13:46:14;6.18;;;4.93;;
69621;SDS011;56841;55.964;37.674;2022-07-25T13:48:40;4.88;;;4.38;;
69621;SDS011;56841;55.964;37.674;2022-07-25T13:51:06;7.75;;;4.90;;
69621;SDS011;56841;55.964;37.674;2022-07-25T13:53:32;8.57;;;4.65;;
69621;SDS011;56841;55.964;37.674;2022-07-25T13:55:58;5.70;;;4.60;;
69621;SDS011;56841;55.964;37.674;2022-07-25T13:58:24;4.93;;;4.43;;
69621;SDS011;56841;55.964;37.674;2022-07-25T14:00:51;6.30;;;5.03;;
69621;SDS011;56841;55.964;37.674;2022-07-25T14:03:17;7.45;;;5.63;;
69621;SDS011;56841;55.964;37.674;2022-07-25T14:05:43;5.70;;;4.55;;
69621;SDS011;56841;55.964;37.674;2022-07-25T14:08:09;7.20;;;5.50;;
69621;SDS011;56841;55.964;37.674;2022-07-25T14:10:35;6.63;;;4.38;;
69621;SDS011;56841;55.964;37.674;2022-07-25T14:13:00;6.95;;;4.68;;
69621;SDS011;56841;55.964;37.674;2022-07-25T14:15:27;6.93;;;4.43;;
69621;SDS011;56841;55.964;37.674;2022-07-25T14:17:53;7.63;;;4.90;;
69621;SDS011;56841;55.964;37.674;2022-07-25T14:20:18;6.88;;;4.50;;
69621;SDS011;56841;55.964;37.674;2022-07-25T14:22:44;7.00;;;4.50;;
69621;SDS011;56841;55.964;37.674;2022-07-25T14:25:10;7.03;;;4.82;;
69621;SDS011;56841;55.964;37.674;2022-07-25T14:27:37;6.68;;;5.28;;
69621;SDS011;56841;55.964;37.674;2022-07-25T14:30:04;5.90;;;4.90;;
69621;SDS011;56841;55.964;37.674;2022-07-25T14:32:33;11.45;;;5.22;;
69621;SDS011;56841;55.964;37.674;2022-07-25T14:34:59;8.90;;;4.97;;
69621;SDS011;56841;55.964;37.674;2022-07-25T14:37:29;5.80;;;5.20;;
69621;SDS011;56841;55.964;37.674;2022-07-25T14:39:56;7.68;;;5.03;;
69621;SDS011;56841;55.964;37.674;2022-07-25T14:42:23;9.02;;;4.85;;
69621;SDS011;56841;55.964;37.674;2022-07-25T14:44:48;8.40;;;4.90;;
69621;SDS011;56841;55.964;37.674;2022-07-25T14:47:14;6.40;;;4.68;;
69621;SDS011;56841;55.964;37.674;2022-07-25T14:49:40;6.60;;;4.63;;
69621;SDS011;56841;55.964;37.674;2022-07-25T14:52:08;5.90;;;5.13;;
69621;SDS011;56841;55.964;37.674;2022-07-25T14:54:34;6.82;;;4.80;;